sensor_id;sensor_type;location;lat;lon;timestamp;pressure;altitude;pressure_sealevel;temperature;humidity
57376;BME280;44805;45.048;5.062;2023-05-02T00:00:08;99829.06;;;12.48;80.79
57376;BME280;44805;45.048;5.062;2023-05-02T00:02:33;99765.56;;;12.15;81.09
57376;BME280;44805;45.048;5.062;2023-05-02T00:04:59;99863.28;;;12.57;82.37
57376;BME280;44805;45.048;5.062;2023-05-02T00:07:24;99802.41;;;12.25;81.72
57376;BME280;44805;45.048;5.062;2023-05-02T00:09:51;99860.66;;;12.57;81.76
57376;BME280;44805;45.048;5.062;2023-05-02T00:12:16;99846.06;;;12.45;82.58
57376;BME280;44805;45.048;5.062;2023-05-02T00:17:54;99835.94;;;12.32;83.21
57376;BME280;44805;45.048;5.062;2023-05-02T00:20:20;99840.22;;;12.33;83.86
57376;BME280;44805;45.048;5.062;2023-05-02T00:22:45;99842.72;;;12.35;83.48
57376;BME280;44805;45.048;5.062;2023-05-02T00:25:10;99767.69;;;11.85;83.35
57376;BME280;44805;45.048;5.062;2023-05-02T00:27:40;99856.63;;;12.45;84.35
57376;BME280;44805;45.048;5.062;2023-05-02T00:30:34;99859.59;;;12.42;83.99
57376;BME280;44805;45.048;5.062;2023-05-02T00:32:59;99836.41;;;12.28;84.20
57376;BME280;44805;45.048;5.062;2023-05-02T00:35:24;99805.72;;;12.01;85.56
57376;BME280;44805;45.048;5.062;2023-05-02T00:37:50;99846.50;;;12.32;85.48
57376;BME280;44805;45.048;5.062;2023-05-02T00:40:15;99801.59;;;11.98;85.38
57376;BME280;44805;45.048;5.062;2023-05-02T00:42:41;99848.47;;;12.30;84.92
57376;BME280;44805;45.048;5.062;2023-05-02T00:48:14;99823.94;;;12.12;85.00
57376;BME280;44805;45.048;5.062;2023-05-02T00:50:42;99821.66;;;12.17;85.49
57376;BME280;44805;45.048;5.062;2023-05-02T00:53:10;99820.13;;;12.06;85.71
57376;BME280;44805;45.048;5.062;2023-05-02T00:55:36;99820.66;;;12.18;85.72
57376;BME280;44805;45.048;5.062;2023-05-02T00:58:04;99789.38;;;11.97;85.18
57376;BME280;44805;45.048;5.062;2023-05-02T01:03:44;99832.22;;;12.17;86.28
57376;BME280;44805;45.048;5.062;2023-05-02T01:17:53;99829.84;;;12.06;87.57
57376;BME280;44805;45.048;5.062;2023-05-02T01:20:22;99834.47;;;12.04;87.86
57376;BME280;44805;45.048;5.062;2023-05-02T01:22:50;99818.88;;;11.92;87.35
57376;BME280;44805;45.048;5.062;2023-05-02T01:25:29;99751.81;;;11.51;87.78
57376;BME280;44805;45.048;5.062;2023-05-02T01:28:34;99836.88;;;11.97;87.78
57376;BME280;44805;45.048;5.062;2023-05-02T01:31:03;99840.72;;;12.03;87.87
57376;BME280;44805;45.048;5.062;2023-05-02T01:33:30;99833.47;;;12.05;87.24
57376;BME280;44805;45.048;5.062;2023-05-02T01:35:57;99839.66;;;11.95;87.49
57376;BME280;44805;45.048;5.062;2023-05-02T01:38:25;99843.53;;;12.01;87.68
57376;BME280;44805;45.048;5.062;2023-05-02T01:40:53;99842.22;;;12.05;nan
57376;BME280;44805;45.048;5.062;2023-05-02T01:43:20;99840.72;;;12.03;87.86
57376;BME280;44805;45.048;5.062;2023-05-02T01:45:49;99756.84;;;11.44;88.82
57376;BME280;44805;45.048;5.062;2023-05-02T01:48:16;99803.88;;;11.75;88.38
57376;BME280;44805;45.048;5.062;2023-05-02T01:50:44;99780.69;;;11.52;88.93
57376;BME280;44805;45.048;5.062;2023-05-02T01:53:10;99825.81;;;11.93;88.36
57376;BME280;44805;45.048;5.062;2023-05-02T01:55:40;99821.06;;;11.79;88.76
57376;BME280;44805;45.048;5.062;2023-05-02T01:58:08;99811.66;;;11.77;89.47
57376;BME280;44805;45.048;5.062;2023-05-02T02:00:35;99802.19;;;11.66;89.04
57376;BME280;44805;45.048;5.062;2023-05-02T02:03:05;99804.16;;;11.64;88.91
57376;BME280;44805;45.048;5.062;2023-05-02T02:05:33;99830.94;;;11.77;89.37
57376;BME280;44805;45.048;5.062;2023-05-02T02:08:00;99851.44;;;11.83;89.21
57376;BME280;44805;45.048;5.062;2023-05-02T02:10:29;99825.97;;;11.74;89.70
57376;BME280;44805;45.048;5.062;2023-05-02T02:13:05;99811.00;;;11.57;89.30
57376;BME280;44805;45.048;5.062;2023-05-02T02:15:34;99851.44;;;11.83;88.97
57376;BME280;44805;45.048;5.062;2023-05-02T02:18:10;99845.56;;;11.71;89.88
57376;BME280;44805;45.048;5.062;2023-05-02T02:20:41;99830.09;;;11.50;90.05
57376;BME280;44805;45.048;5.062;2023-05-02T02:23:07;99846.44;;;11.80;90.01
57376;BME280;44805;45.048;5.062;2023-05-02T02:25:35;99795.59;;;11.26;90.77
57376;BME280;44805;45.048;5.062;2023-05-02T02:28:01;99860.03;;;11.67;90.84
57376;BME280;44805;45.048;5.062;2023-05-02T02:30:27;99829.03;;;11.43;90.83
57376;BME280;44805;45.048;5.062;2023-05-02T02:32:52;99771.81;;;11.18;90.55
57376;BME280;44805;45.048;5.062;2023-05-02T02:35:18;99749.94;;;10.99;90.62
57376;BME280;44805;45.048;5.062;2023-05-02T02:38:22;99853.25;;;11.65;90.80
57376;BME280;44805;45.048;5.062;2023-05-02T02:46:59;99856.47;;;11.50;91.90
57376;BME280;44805;45.048;5.062;2023-05-02T02:49:48;99845.53;;;11.45;91.69
57376;BME280;44805;45.048;5.062;2023-05-02T02:52:34;99858.47;;;11.39;92.22
57376;BME280;44805;45.048;5.062;2023-05-02T02:55:28;99855.72;;;11.40;91.89
57376;BME280;44805;45.048;5.062;2023-05-02T02:57:59;99852.59;;;11.27;92.59
57376;BME280;44805;45.048;5.062;2023-05-02T03:00:26;99857.13;;;11.35;92.91
57376;BME280;44805;45.048;5.062;2023-05-02T03:02:53;99852.13;;;11.14;93.54
57376;BME280;44805;45.048;5.062;2023-05-02T03:05:20;99858.09;;;11.16;93.06
57376;BME280;44805;45.048;5.062;2023-05-02T03:07:46;99873.78;;;11.17;94.09
57376;BME280;44805;45.048;5.062;2023-05-02T03:10:12;99850.63;;;11.11;92.92
57376;BME280;44805;45.048;5.062;2023-05-02T03:12:37;99884.09;;;11.28;94.01
57376;BME280;44805;45.048;5.062;2023-05-02T03:17:48;99866.44;;;11.11;94.37
57376;BME280;44805;45.048;5.062;2023-05-02T03:20:13;99877.19;;;11.00;95.11
57376;BME280;44805;45.048;5.062;2023-05-02T03:22:39;99835.59;;;10.76;95.02
57376;BME280;44805;45.048;5.062;2023-05-02T03:25:05;99853.69;;;10.89;94.97
57376;BME280;44805;45.048;5.062;2023-05-02T03:27:30;99869.06;;;10.93;95.88
57376;BME280;44805;45.048;5.062;2023-05-02T03:29:56;99870.25;;;10.99;95.33
57376;BME280;44805;45.048;5.062;2023-05-02T03:32:21;99791.69;;;10.49;96.13
57376;BME280;44805;45.048;5.062;2023-05-02T03:34:47;99853.53;;;10.90;95.77
57376;BME280;44805;45.048;5.062;2023-05-02T03:37:12;99819.53;;;10.79;94.92
57376;BME280;44805;45.048;5.062;2023-05-02T03:39:38;99812.44;;;10.79;95.07
57376;BME280;44805;45.048;5.062;2023-05-02T03:42:04;99866.63;;;11.10;94.80
57376;BME280;44805;45.048;5.062;2023-05-02T03:48:13;99862.47;;;11.07;95.22
57376;BME280;44805;45.048;5.062;2023-05-02T03:50:38;99858.75;;;11.00;94.71
57376;BME280;44805;45.048;5.062;2023-05-02T03:53:04;99862.28;;;11.08;94.51
57376;BME280;44805;45.048;5.062;2023-05-02T03:55:29;99864.13;;;11.08;95.01
57376;BME280;44805;45.048;5.062;2023-05-02T03:57:55;99802.09;;;10.68;95.90
57376;BME280;44805;45.048;5.062;2023-05-02T04:00:21;99852.13;;;10.96;95.48
57376;BME280;44805;45.048;5.062;2023-05-02T04:02:46;99852.94;;;10.96;96.01
57376;BME280;44805;45.048;5.062;2023-05-02T04:05:12;99865.63;;;11.11;95.71
57376;BME280;44805;45.048;5.062;2023-05-02T04:07:37;99866.81;;;10.98;96.02
57376;BME280;44805;45.048;5.062;2023-05-02T04:10:03;99873.44;;;11.02;96.55
57376;BME280;44805;45.048;5.062;2023-05-02T04:12:29;99816.78;;;10.71;96.57
57376;BME280;44805;45.048;5.062;2023-05-02T04:14:54;99838.22;;;10.76;96.77
57376;BME280;44805;45.048;5.062;2023-05-02T04:17:20;99854.38;;;10.91;96.21
57376;BME280;44805;45.048;5.062;2023-05-02T04:19:46;99846.03;;;10.95;96.49
57376;BME280;44805;45.048;5.062;2023-05-02T04:22:11;99821.59;;;10.75;95.48
57376;BME280;44805;45.048;5.062;2023-05-02T04:24:36;99876.25;;;10.91;96.69
57376;BME280;44805;45.048;5.062;2023-05-02T04:27:02;99844.19;;;10.78;96.34
57376;BME280;44805;45.048;5.062;2023-05-02T04:36:04;99933.72;;;11.33;95.70
57376;BME280;44805;45.048;5.062;2023-05-02T04:38:30;99942.06;;;11.28;96.28
57376;BME280;44805;45.048;5.062;2023-05-02T04:40:55;99880.41;;;10.94;95.97
57376;BME280;44805;45.048;5.062;2023-05-02T04:43:36;99917.44;;;11.20;95.78
57376;BME280;44805;45.048;5.062;2023-05-02T04:46:01;99909.38;;;11.21;96.21
57376;BME280;44805;45.048;5.062;2023-05-02T04:48:27;99925.81;;;11.33;96.37
57376;BME280;44805;45.048;5.062;2023-05-02T04:50:52;99913.22;;;11.27;96.42
57376;BME280;44805;45.048;5.062;2023-05-02T04:53:22;99929.41;;;11.32;96.23
57376;BME280;44805;45.048;5.062;2023-05-02T04:55:48;99899.88;;;11.11;95.95
57376;BME280;44805;45.048;5.062;2023-05-02T04:58:19;99938.78;;;11.44;96.13
57376;BME280;44805;45.048;5.062;2023-05-02T05:00:45;99946.59;;;11.36;96.24
57376;BME280;44805;45.048;5.062;2023-05-02T05:03:10;99875.38;;;11.00;95.46
57376;BME280;44805;45.048;5.062;2023-05-02T05:05:35;99935.56;;;11.50;95.38
57376;BME280;44805;45.048;5.062;2023-05-02T05:08:01;99921.28;;;11.25;96.01
57376;BME280;44805;45.048;5.062;2023-05-02T05:10:26;99950.56;;;11.50;95.37
57376;BME280;44805;45.048;5.062;2023-05-02T05:12:52;99902.09;;;11.33;94.84
57376;BME280;44805;45.048;5.062;2023-05-02T05:18:39;99930.97;;;11.52;93.94
57376;BME280;44805;45.048;5.062;2023-05-02T05:21:08;99963.28;;;11.55;94.17
57376;BME280;44805;45.048;5.062;2023-05-02T05:23:34;99966.53;;;11.66;94.10
57376;BME280;44805;45.048;5.062;2023-05-02T05:26:10;99966.97;;;11.80;93.57
57376;BME280;44805;45.048;5.062;2023-05-02T05:29:04;99969.47;;;11.81;93.28
57376;BME280;44805;45.048;5.062;2023-05-02T05:31:29;99933.38;;;11.46;93.50
57376;BME280;44805;45.048;5.062;2023-05-02T05:33:55;99964.28;;;11.71;93.78
57376;BME280;44805;45.048;5.062;2023-05-02T05:36:21;99969.47;;;11.81;93.37
57376;BME280;44805;45.048;5.062;2023-05-02T05:38:47;99875.94;;;11.22;92.76
57376;BME280;44805;45.048;5.062;2023-05-02T05:41:12;99946.81;;;11.70;92.41
57376;BME280;44805;45.048;5.062;2023-05-02T05:50:26;99973.00;;;11.54;93.30
57376;BME280;44805;45.048;5.062;2023-05-02T05:52:51;99929.13;;;11.35;93.38
57376;BME280;44805;45.048;5.062;2023-05-02T05:55:17;99929.97;;;11.54;91.40
57376;BME280;44805;45.048;5.062;2023-05-02T05:57:42;99931.47;;;11.38;92.37
57376;BME280;44805;45.048;5.062;2023-05-02T06:00:39;99999.28;;;11.91;91.49
57376;BME280;44805;45.048;5.062;2023-05-02T06:03:05;99945.19;;;11.60;91.06
57376;BME280;44805;45.048;5.062;2023-05-02T06:05:54;99917.84;;;11.43;91.54
57376;BME280;44805;45.048;5.062;2023-05-02T06:08:19;99949.88;;;11.66;91.55
57376;BME280;44805;45.048;5.062;2023-05-02T06:10:46;99951.97;;;11.62;91.48
57376;BME280;44805;45.048;5.062;2023-05-02T06:13:14;99948.13;;;11.57;90.96
57376;BME280;44805;45.048;5.062;2023-05-02T06:19:01;99941.28;;;11.64;90.53
57376;BME280;44805;45.048;5.062;2023-05-02T06:21:26;99942.56;;;11.78;89.56
57376;BME280;44805;45.048;5.062;2023-05-02T06:23:55;99934.50;;;11.79;89.50
57376;BME280;44805;45.048;5.062;2023-05-02T06:26:20;99932.25;;;11.84;88.95
57376;BME280;44805;45.048;5.062;2023-05-02T06:28:46;99978.06;;;12.37;87.44
57376;BME280;44805;45.048;5.062;2023-05-02T06:31:20;99993.34;;;12.33;86.95
57376;BME280;44805;45.048;5.062;2023-05-02T06:33:46;99969.16;;;12.20;87.23
57376;BME280;44805;45.048;5.062;2023-05-02T06:36:11;99898.94;;;11.83;87.28
57376;BME280;44805;45.048;5.062;2023-05-02T06:38:37;99941.81;;;12.03;87.34
57376;BME280;44805;45.048;5.062;2023-05-02T06:41:02;99942.53;;;12.13;86.08
57376;BME280;44805;45.048;5.062;2023-05-02T06:43:28;99939.44;;;12.18;86.14
57376;BME280;44805;45.048;5.062;2023-05-02T06:45:54;99967.94;;;12.32;85.86
57376;BME280;44805;45.048;5.062;2023-05-02T06:48:20;99974.06;;;12.33;85.96
57376;BME280;44805;45.048;5.062;2023-05-02T06:50:46;99915.69;;;12.18;85.90
57376;BME280;44805;45.048;5.062;2023-05-02T06:53:12;99987.13;;;12.60;85.00
57376;BME280;44805;45.048;5.062;2023-05-02T06:55:38;100004.00;;;12.68;85.20
57376;BME280;44805;45.048;5.062;2023-05-02T06:58:03;99922.78;;;12.18;85.26
57376;BME280;44805;45.048;5.062;2023-05-02T07:00:29;99908.94;;;11.98;84.74
57376;BME280;44805;45.048;5.062;2023-05-02T07:02:55;99930.22;;;12.14;85.59
57376;BME280;44805;45.048;5.062;2023-05-02T07:05:20;99989.19;;;12.49;85.25
57376;BME280;44805;45.048;5.062;2023-05-02T07:07:45;100003.09;;;12.59;84.31
57376;BME280;44805;45.048;5.062;2023-05-02T07:10:11;100020.69;;;12.68;84.95
57376;BME280;44805;45.048;5.062;2023-05-02T07:12:37;99955.59;;;12.15;84.72
57376;BME280;44805;45.048;5.062;2023-05-02T07:18:25;99995.59;;;12.46;85.95
57376;BME280;44805;45.048;5.062;2023-05-02T07:20:50;99999.03;;;12.65;84.69
57376;BME280;44805;45.048;5.062;2023-05-02T07:23:16;99979.38;;;12.41;84.53
57376;BME280;44805;45.048;5.062;2023-05-02T07:25:42;100006.34;;;12.71;84.08
57376;BME280;44805;45.048;5.062;2023-05-02T07:28:07;99997.91;;;12.67;83.96
57376;BME280;44805;45.048;5.062;2023-05-02T07:34:00;100036.38;;;12.96;81.92
57376;BME280;44805;45.048;5.062;2023-05-02T07:36:26;100002.34;;;12.93;81.80
57376;BME280;44805;45.048;5.062;2023-05-02T07:38:52;100021.91;;;13.08;82.01
57376;BME280;44805;45.048;5.062;2023-05-02T07:41:17;99993.28;;;12.95;81.34
57376;BME280;44805;45.048;5.062;2023-05-02T07:43:43;99995.91;;;12.95;81.40
57376;BME280;44805;45.048;5.062;2023-05-02T07:52:51;99997.22;;;13.25;80.97
57376;BME280;44805;45.048;5.062;2023-05-02T07:55:17;100007.22;;;13.48;79.95
57376;BME280;44805;45.048;5.062;2023-05-02T07:57:42;100034.41;;;13.75;78.68
57376;BME280;44805;45.048;5.062;2023-05-02T08:06:52;100015.59;;;14.51;75.88
57376;BME280;44805;45.048;5.062;2023-05-02T08:09:17;100018.13;;;14.53;76.76
57376;BME280;44805;45.048;5.062;2023-05-02T08:11:55;100031.69;;;14.58;75.09
57376;BME280;44805;45.048;5.062;2023-05-02T08:14:23;99994.44;;;14.02;76.77
57376;BME280;44805;45.048;5.062;2023-05-02T08:16:48;100027.06;;;14.27;76.42
57376;BME280;44805;45.048;5.062;2023-05-02T08:19:14;99995.41;;;13.85;76.12
57376;BME280;44805;45.048;5.062;2023-05-02T08:21:39;100022.59;;;14.20;75.76
57376;BME280;44805;45.048;5.062;2023-05-02T08:24:07;99976.53;;;13.88;76.14
57376;BME280;44805;45.048;5.062;2023-05-02T08:26:33;99970.56;;;13.70;76.60
57376;BME280;44805;45.048;5.062;2023-05-02T08:28:58;100020.25;;;14.25;76.21
57376;BME280;44805;45.048;5.062;2023-05-02T08:31:29;100009.00;;;14.23;75.61
57376;BME280;44805;45.048;5.062;2023-05-02T08:33:55;100002.69;;;14.16;75.88
57376;BME280;44805;45.048;5.062;2023-05-02T08:36:21;99993.13;;;14.15;75.08
57376;BME280;44805;45.048;5.062;2023-05-02T08:38:46;99982.84;;;14.11;75.74
57376;BME280;44805;45.048;5.062;2023-05-02T08:41:16;100040.31;;;14.68;74.15
57376;BME280;44805;45.048;5.062;2023-05-02T08:43:46;99935.34;;;14.18;74.68
57376;BME280;44805;45.048;5.062;2023-05-02T08:46:31;100026.22;;;14.60;74.09
57376;BME280;44805;45.048;5.062;2023-05-02T08:49:00;100006.50;;;14.46;73.80
57376;BME280;44805;45.048;5.062;2023-05-02T08:51:27;99943.47;;;13.92;73.40
57376;BME280;44805;45.048;5.062;2023-05-02T08:53:53;99977.06;;;14.08;72.83
57376;BME280;44805;45.048;5.062;2023-05-02T08:56:19;100009.00;;;14.23;74.08
57376;BME280;44805;45.048;5.062;2023-05-02T08:58:45;99989.47;;;14.16;72.52
57376;BME280;44805;45.048;5.062;2023-05-02T09:01:15;100023.91;;;14.40;72.62
57376;BME280;44805;45.048;5.062;2023-05-02T09:03:46;99984.81;;;14.42;72.12
57376;BME280;44805;45.048;5.062;2023-05-02T09:06:17;100031.38;;;14.53;72.41
57376;BME280;44805;45.048;5.062;2023-05-02T09:08:44;99986.81;;;14.57;71.31
57376;BME280;44805;45.048;5.062;2023-05-02T09:11:12;99995.72;;;14.72;70.75
57376;BME280;44805;45.048;5.062;2023-05-02T09:13:39;99979.97;;;14.70;71.22
57376;BME280;44805;45.048;5.062;2023-05-02T09:19:24;100047.00;;;15.12;70.82
57376;BME280;44805;45.048;5.062;2023-05-02T09:21:50;100016.84;;;15.05;69.97
57376;BME280;44805;45.048;5.062;2023-05-02T09:24:25;99958.91;;;14.85;69.18
57376;BME280;44805;45.048;5.062;2023-05-02T09:27:01;100031.47;;;15.40;68.51
57376;BME280;44805;45.048;5.062;2023-05-02T09:29:28;100046.63;;;15.23;67.71
57376;BME280;44805;45.048;5.062;2023-05-02T09:32:00;99939.59;;;14.60;68.22
57376;BME280;44805;45.048;5.062;2023-05-02T09:34:28;100034.38;;;15.22;68.85
57376;BME280;44805;45.048;5.062;2023-05-02T09:36:55;99940.59;;;14.59;68.74
57376;BME280;44805;45.048;5.062;2023-05-02T09:39:23;99975.75;;;15.01;69.35
57376;BME280;44805;45.048;5.062;2023-05-02T09:41:55;99963.16;;;15.03;67.98
57376;BME280;44805;45.048;5.062;2023-05-02T09:44:24;99983.97;;;15.53;66.93
57376;BME280;44805;45.048;5.062;2023-05-02T09:50:16;100009.69;;;15.84;65.64
57376;BME280;44805;45.048;5.062;2023-05-02T09:53:08;100017.56;;;16.00;65.13
57376;BME280;44805;45.048;5.062;2023-05-02T09:55:35;100017.66;;;16.07;64.58
57376;BME280;44805;45.048;5.062;2023-05-02T09:58:01;100027.59;;;16.13;63.03
57376;BME280;44805;45.048;5.062;2023-05-02T10:03:48;100010.50;;;15.93;63.61
57376;BME280;44805;45.048;5.062;2023-05-02T10:06:17;100024.00;;;16.06;64.22
57376;BME280;44805;45.048;5.062;2023-05-02T10:08:44;99976.84;;;15.85;65.31
57376;BME280;44805;45.048;5.062;2023-05-02T10:11:12;100005.19;;;16.31;64.32
57376;BME280;44805;45.048;5.062;2023-05-02T10:13:39;99972.22;;;16.78;62.40
57376;BME280;44805;45.048;5.062;2023-05-02T10:16:22;99989.19;;;17.57;62.22
57376;BME280;44805;45.048;5.062;2023-05-02T10:18:58;100008.16;;;18.06;59.91
57376;BME280;44805;45.048;5.062;2023-05-02T10:21:27;99968.78;;;17.65;58.63
57376;BME280;44805;45.048;5.062;2023-05-02T10:23:53;100012.84;;;17.82;57.95
57376;BME280;44805;45.048;5.062;2023-05-02T10:26:18;100015.38;;;17.75;57.82
57376;BME280;44805;45.048;5.062;2023-05-02T10:28:48;99990.09;;;17.65;58.48
57376;BME280;44805;45.048;5.062;2023-05-02T10:34:49;99983.03;;;17.93;58.38
57376;BME280;44805;45.048;5.062;2023-05-02T10:37:16;99975.91;;;18.00;58.17
57376;BME280;44805;45.048;5.062;2023-05-02T10:39:42;99959.03;;;17.93;57.34
57376;BME280;44805;45.048;5.062;2023-05-02T10:42:08;99937.84;;;17.64;57.35
57376;BME280;44805;45.048;5.062;2023-05-02T10:44:35;99947.53;;;17.86;57.89
57376;BME280;44805;45.048;5.062;2023-05-02T10:47:17;99966.13;;;18.29;55.41
57376;BME280;44805;45.048;5.062;2023-05-02T10:55:21;99981.19;;;19.00;56.13
57376;BME280;44805;45.048;5.062;2023-05-02T11:00:24;99926.09;;;18.22;55.07
57376;BME280;44805;45.048;5.062;2023-05-02T11:03:52;99968.66;;;18.72;53.57
57376;BME280;44805;45.048;5.062;2023-05-02T11:06:06;99920.81;;;18.64;54.17
57376;BME280;44805;45.048;5.062;2023-05-02T11:08:32;99939.19;;;19.22;53.42
57376;BME280;44805;45.048;5.062;2023-05-02T11:11:36;99923.00;;;18.75;53.11
57376;BME280;44805;45.048;5.062;2023-05-02T11:14:02;99975.13;;;18.84;53.00
57376;BME280;44805;45.048;5.062;2023-05-02T11:24:51;99927.53;;;19.36;53.42
57376;BME280;44805;45.048;5.062;2023-05-02T11:35:22;99934.94;;;18.86;54.69
57376;BME280;44805;45.048;5.062;2023-05-02T11:38:00;99929.19;;;18.26;55.02
57376;BME280;44805;45.048;5.062;2023-05-02T11:40:30;99951.44;;;18.75;54.31
57376;BME280;44805;45.048;5.062;2023-05-02T11:42:58;99947.56;;;18.42;55.95
57376;BME280;44805;45.048;5.062;2023-05-02T11:45:34;99946.03;;;18.90;54.74
57376;BME280;44805;45.048;5.062;2023-05-02T11:48:31;99949.22;;;19.13;55.03
57376;BME280;44805;45.048;5.062;2023-05-02T11:50:58;99902.00;;;18.72;54.26
57376;BME280;44805;45.048;5.062;2023-05-02T11:53:27;99898.09;;;18.68;53.80
57376;BME280;44805;45.048;5.062;2023-05-02T11:55:58;99947.97;;;19.09;54.14
57376;BME280;44805;45.048;5.062;2023-05-02T11:58:25;99861.13;;;18.58;53.08
57376;BME280;44805;45.048;5.062;2023-05-02T12:04:15;99922.22;;;18.88;54.47
57376;BME280;44805;45.048;5.062;2023-05-02T12:06:53;99948.44;;;19.19;53.05
57376;BME280;44805;45.048;5.062;2023-05-02T12:09:19;99899.56;;;19.19;54.06
57376;BME280;44805;45.048;5.062;2023-05-02T12:11:51;99908.13;;;19.07;52.79
57376;BME280;44805;45.048;5.062;2023-05-02T12:14:16;99933.31;;;18.92;54.07
57376;BME280;44805;45.048;5.062;2023-05-02T12:16:55;99930.16;;;19.23;53.27
57376;BME280;44805;45.048;5.062;2023-05-02T12:19:20;99934.50;;;19.30;53.25
57376;BME280;44805;45.048;5.062;2023-05-02T12:21:46;99873.66;;;19.06;53.45
57376;BME280;44805;45.048;5.062;2023-05-02T12:24:13;99855.31;;;18.83;52.15
57376;BME280;44805;45.048;5.062;2023-05-02T12:26:39;99879.22;;;19.11;52.37
57376;BME280;44805;45.048;5.062;2023-05-02T12:29:04;99859.50;;;19.12;51.37
57376;BME280;44805;45.048;5.062;2023-05-02T12:31:50;99918.34;;;19.65;51.29
57376;BME280;44805;45.048;5.062;2023-05-02T12:34:31;99924.97;;;19.69;50.61
57376;BME280;44805;45.048;5.062;2023-05-02T12:36:56;99892.00;;;19.36;50.78
57376;BME280;44805;45.048;5.062;2023-05-02T12:39:42;99922.31;;;19.83;51.36
57376;BME280;44805;45.048;5.062;2023-05-02T12:42:12;99915.72;;;19.72;52.77
57376;BME280;44805;45.048;5.062;2023-05-02T12:44:39;99880.34;;;19.63;51.91
57376;BME280;44805;45.048;5.062;2023-05-02T12:47:11;99892.91;;;19.69;51.92
57376;BME280;44805;45.048;5.062;2023-05-02T12:49:56;99877.06;;;19.55;52.09
57376;BME280;44805;45.048;5.062;2023-05-02T12:55:23;99907.09;;;20.03;51.33
57376;BME280;44805;45.048;5.062;2023-05-02T12:57:49;99914.72;;;20.06;51.70
57376;BME280;44805;45.048;5.062;2023-05-02T13:00:19;99908.56;;;19.92;52.31
57376;BME280;44805;45.048;5.062;2023-05-02T13:02:44;99857.31;;;19.49;51.45
57376;BME280;44805;45.048;5.062;2023-05-02T13:05:17;99893.75;;;19.83;51.09
57376;BME280;44805;45.048;5.062;2023-05-02T13:07:42;99902.56;;;20.17;51.40
57376;BME280;44805;45.048;5.062;2023-05-02T13:10:08;99904.41;;;20.16;50.50
57376;BME280;44805;45.048;5.062;2023-05-02T13:12:35;99843.19;;;19.95;50.04
57376;BME280;44805;45.048;5.062;2023-05-02T13:15:06;99819.34;;;19.73;49.86
57376;BME280;44805;45.048;5.062;2023-05-02T13:17:35;99864.31;;;20.16;50.15
57376;BME280;44805;45.048;5.062;2023-05-02T13:20:01;99867.84;;;20.04;49.62
57376;BME280;44805;45.048;5.062;2023-05-02T13:22:27;99888.38;;;20.23;49.57
57376;BME280;44805;45.048;5.062;2023-05-02T13:24:52;99866.41;;;20.08;49.89
57376;BME280;44805;45.048;5.062;2023-05-02T13:27:18;99895.97;;;20.33;50.13
57376;BME280;44805;45.048;5.062;2023-05-02T13:29:44;99861.84;;;20.22;50.11
57376;BME280;44805;45.048;5.062;2023-05-02T13:32:15;99860.41;;;20.19;49.18
57376;BME280;44805;45.048;5.062;2023-05-02T13:34:41;99896.81;;;20.07;49.55
57376;BME280;44805;45.048;5.062;2023-05-02T13:37:07;99875.03;;;20.03;50.60
57376;BME280;44805;45.048;5.062;2023-05-02T13:39:32;99881.81;;;19.99;50.26
57376;BME280;44805;45.048;5.062;2023-05-02T13:41:58;99871.53;;;19.89;50.31
57376;BME280;44805;45.048;5.062;2023-05-02T13:44:23;99866.81;;;19.98;50.78
57376;BME280;44805;45.048;5.062;2023-05-02T13:47:26;99894.75;;;20.22;50.60
57376;BME280;44805;45.048;5.062;2023-05-02T13:49:51;99846.44;;;19.64;50.77
57376;BME280;44805;45.048;5.062;2023-05-02T13:52:17;99864.53;;;19.82;51.21
57376;BME280;44805;45.048;5.062;2023-05-02T13:54:42;99867.63;;;19.92;50.85
57376;BME280;44805;45.048;5.062;2023-05-02T13:57:08;99821.78;;;19.82;50.38
57376;BME280;44805;45.048;5.062;2023-05-02T13:59:33;99847.28;;;20.17;50.70
57376;BME280;44805;45.048;5.062;2023-05-02T14:01:58;99824.69;;;19.80;49.97
57376;BME280;44805;45.048;5.062;2023-05-02T14:04:24;99839.03;;;19.99;50.66
57376;BME280;44805;45.048;5.062;2023-05-02T14:06:52;99841.50;;;20.21;50.22
57376;BME280;44805;45.048;5.062;2023-05-02T14:09:17;99842.31;;;20.14;49.73
57376;BME280;44805;45.048;5.062;2023-05-02T14:11:43;99823.66;;;19.88;49.91
57376;BME280;44805;45.048;5.062;2023-05-02T14:14:11;99844.41;;;19.99;49.83
57376;BME280;44805;45.048;5.062;2023-05-02T14:19:39;99878.09;;;20.27;49.19
57376;BME280;44805;45.048;5.062;2023-05-02T14:22:05;99836.78;;;19.96;49.80
57376;BME280;44805;45.048;5.062;2023-05-02T14:24:31;99834.94;;;20.03;49.85
57376;BME280;44805;45.048;5.062;2023-05-02T14:26:57;99840.25;;;20.16;49.83
57376;BME280;44805;45.048;5.062;2023-05-02T14:29:22;99810.72;;;19.85;49.63
57376;BME280;44805;45.048;5.062;2023-05-02T14:35:47;99883.66;;;20.19;50.32
57376;BME280;44805;45.048;5.062;2023-05-02T14:38:13;99862.88;;;20.21;49.82
57376;BME280;44805;45.048;5.062;2023-05-02T14:40:38;99895.38;;;20.17;49.82
57376;BME280;44805;45.048;5.062;2023-05-02T14:43:03;99878.94;;;20.01;50.15
57376;BME280;44805;45.048;5.062;2023-05-02T14:45:29;99875.63;;;20.19;48.82
57376;BME280;44805;45.048;5.062;2023-05-02T14:51:16;99867.59;;;20.12;49.50
57376;BME280;44805;45.048;5.062;2023-05-02T14:53:42;99863.31;;;19.98;49.58
57376;BME280;44805;45.048;5.062;2023-05-02T14:56:11;99825.50;;;19.74;49.99
57376;BME280;44805;45.048;5.062;2023-05-02T14:58:38;99854.06;;;20.00;49.09
57376;BME280;44805;45.048;5.062;2023-05-02T15:01:04;99835.75;;;20.04;49.74
57376;BME280;44805;45.048;5.062;2023-05-02T15:06:51;99871.09;;;20.19;49.87
57376;BME280;44805;45.048;5.062;2023-05-02T15:09:18;99838.84;;;19.94;49.43
57376;BME280;44805;45.048;5.062;2023-05-02T15:11:43;99835.97;;;20.02;48.80
57376;BME280;44805;45.048;5.062;2023-05-02T15:14:09;99880.53;;;20.35;49.12
57376;BME280;44805;45.048;5.062;2023-05-02T15:16:34;99856.31;;;20.16;49.17
57376;BME280;44805;45.048;5.062;2023-05-02T15:23:02;99848.94;;;20.05;50.03